Time;durP1;ratioP1;P1;durP2;ratioP2;P2;SDS_P1;SDS_P2;PMS_P1;PMS_P2;Temp;Humidity;BMP_temperature;BMP_pressure;BME280_temperature;BME280_humidity;BME280_pressure;Samples;Min_cycle;Max_cycle;Signal;HPM_P1;HPM_P2
2021/06/07 00:16:54;;;;;;;70.80;33.50;;;17.90;97.30;;;;;;4918067;29;20500;-92
2021/06/07 00:20:13;;;;;;;81.10;35.40;;;17.90;97.30;;;;;;4917766;29;20445;-92
2021/06/07 04:44:03;;;;;;;78.40;37.10;;;17.60;97.30;;;;;;4937725;29;20494;-89
2021/06/07 04:53:34;;;;;;;77.07;37.10;;;17.70;97.30;;;;;;4841608;29;20396;-90
2021/06/07 05:03:54;;;;;;;75.97;36.50;;;17.80;97.30;;;;;;4944340;29;20547;-89
2021/06/07 05:07:03;;;;;;;77.17;36.23;;;17.80;97.30;;;;;;4853411;29;20495;-92
2021/06/07 05:10:04;;;;;;;78.80;35.73;;;17.70;97.30;;;;;;4859795;29;20419;-89
2021/06/07 05:16:10;;;;;;;75.77;37.13;;;17.70;97.30;;;;;;4865065;23;20499;-74
2021/06/07 05:18:36;;;;;;;78.10;38.00;;;17.70;97.30;;;;;;4917548;29;20963;-77
2021/06/07 05:21:02;;;;;;;74.50;36.93;;;17.70;97.30;;;;;;4917378;29;20439;-75
2021/06/07 05:23:28;;;;;;;85.23;39.90;;;17.70;97.30;;;;;;4917196;29;20475;-75
2021/06/07 05:25:53;;;;;;;83.50;38.97;;;17.70;97.30;;;;;;4916818;29;20210;-75
2021/06/07 05:28:21;;;;;;;82.97;38.40;;;17.70;97.30;;;;;;4904747;29;20184;-75
2021/06/07 05:30:54;;;;;;;88.03;39.70;;;17.70;97.30;;;;;;4909168;29;20204;-76
2021/06/07 05:33:21;;;;;;;78.90;40.10;;;17.70;97.30;;;;;;4921978;29;20416;-76
2021/06/07 05:35:49;;;;;;;84.23;38.47;;;17.70;97.30;;;;;;4916129;29;20474;-76
2021/06/07 05:38:15;;;;;;;73.73;36.77;;;17.70;97.30;;;;;;4918818;29;20436;-75
2021/06/07 05:40:42;;;;;;;78.40;37.37;;;17.70;97.30;;;;;;4918621;29;20538;-76
2021/06/07 05:43:09;;;;;;;89.93;37.40;;;17.70;97.30;;;;;;4935925;29;20422;-76
2021/06/07 05:45:35;;;;;;;72.00;37.40;;;17.80;97.30;;;;;;4918105;29;20460;-76
2021/06/07 05:48:01;;;;;;;78.17;39.13;;;17.80;97.30;;;;;;4917342;29;20779;-76
2021/06/07 05:50:29;;;;;;;77.87;37.80;;;17.80;97.30;;;;;;4900542;29;20429;-76
2021/06/07 05:52:55;;;;;;;73.97;37.67;;;17.90;97.30;;;;;;4901365;29;20189;-77
2021/06/07 05:55:25;;;;;;;75.53;37.90;;;17.90;97.30;;;;;;4913970;29;20435;-76
2021/06/07 05:57:53;;;;;;;78.67;38.07;;;17.90;97.30;;;;;;4919085;29;20176;-77
2021/06/07 06:00:25;;;;;;;72.30;37.37;;;17.90;97.30;;;;;;4919528;29;20416;-76
2021/06/07 06:02:50;;;;;;;70.67;35.77;;;18.00;97.30;;;;;;4919447;29;20446;-76
2021/06/07 06:05:17;;;;;;;72.53;37.73;;;18.00;97.30;;;;;;4918433;29;21002;-77
2021/06/07 06:07:43;;;;;;;75.17;37.47;;;18.00;97.30;;;;;;4919241;29;20218;-77
2021/06/07 06:10:09;;;;;;;70.93;37.70;;;18.00;97.30;;;;;;4902354;29;20428;-76
2021/06/07 06:12:35;;;;;;;76.37;36.70;;;18.10;97.30;;;;;;4900602;29;20496;-76
2021/06/07 06:15:00;;;;;;;85.10;39.87;;;18.10;97.30;;;;;;4905560;29;20423;-76
2021/06/07 06:17:26;;;;;;;76.43;38.03;;;18.10;97.30;;;;;;4919110;29;20228;-76
2021/06/07 06:19:52;;;;;;;71.90;38.23;;;18.10;97.30;;;;;;4936294;29;20183;-78
2021/06/07 06:22:17;;;;;;;76.80;39.10;;;18.20;97.30;;;;;;4919210;29;20204;-76
2021/06/07 06:24:45;;;;;;;77.50;38.50;;;18.20;97.30;;;;;;4917499;29;20739;-76
2021/06/07 06:27:13;;;;;;;75.47;36.90;;;18.20;97.30;;;;;;4915961;29;20202;-77
2021/06/07 06:29:39;;;;;;;73.70;39.07;;;18.20;97.30;;;;;;4921426;29;20448;-76
2021/06/07 06:32:06;;;;;;;86.00;39.00;;;18.20;97.30;;;;;;4900082;29;20493;-76
2021/06/07 06:34:31;;;;;;;80.97;38.70;;;18.30;97.30;;;;;;4899988;29;20452;-76
2021/06/07 06:36:57;;;;;;;80.03;36.50;;;18.30;97.30;;;;;;4911523;29;20427;-78
2021/06/07 06:39:23;;;;;;;66.53;36.27;;;18.30;97.30;;;;;;4899829;29;20191;-76
2021/06/07 06:41:48;;;;;;;76.30;38.70;;;18.30;97.30;;;;;;4916925;29;20812;-76
2021/06/07 06:44:14;;;;;;;70.03;38.17;;;18.30;97.30;;;;;;4899364;29;20184;-77
2021/06/07 06:46:40;;;;;;;70.67;37.77;;;18.30;97.30;;;;;;4915766;29;20318;-77
2021/06/07 06:49:06;;;;;;;64.07;34.20;;;18.40;97.30;;;;;;4917623;29;20172;-77
2021/06/07 06:51:31;;;;;;;67.77;35.77;;;18.40;97.30;;;;;;4916000;29;20624;-76
2021/06/07 06:53:57;;;;;;;65.10;34.13;;;18.50;97.30;;;;;;4918518;29;20423;-76
2021/06/07 06:56:23;;;;;;;68.50;35.20;;;18.50;97.30;;;;;;4918312;29;20270;-77
2021/06/07 06:58:49;;;;;;;62.67;33.70;;;18.50;97.30;;;;;;4918123;29;20188;-77
2021/06/07 07:01:16;;;;;;;62.20;32.93;;;18.60;97.30;;;;;;4916079;29;20207;-77
2021/06/07 07:03:41;;;;;;;64.83;34.27;;;18.70;97.30;;;;;;4918487;29;20965;-76
2021/06/07 07:06:07;;;;;;;56.90;32.60;;;18.70;97.30;;;;;;4917915;29;20467;-77
2021/06/07 07:08:33;;;;;;;61.73;33.50;;;18.80;97.30;;;;;;4918303;29;20179;-76
2021/06/07 07:10:59;;;;;;;61.20;34.33;;;18.80;97.30;;;;;;4908005;29;20598;-77
2021/06/07 07:13:25;;;;;;;61.33;33.90;;;18.80;97.30;;;;;;4899269;29;20184;-76
2021/06/07 07:15:51;;;;;;;55.20;31.90;;;18.80;97.30;;;;;;4898969;29;20443;-77
2021/06/07 07:18:17;;;;;;;49.33;29.80;;;18.90;97.30;;;;;;4916503;29;20279;-77
2021/06/07 07:20:42;;;;;;;53.23;31.20;;;18.90;97.30;;;;;;4900551;29;20967;-76
2021/06/07 07:23:08;;;;;;;54.03;30.97;;;19.00;97.30;;;;;;4899762;29;20636;-76
2021/06/07 07:25:35;;;;;;;59.50;32.10;;;19.00;97.30;;;;;;4898922;29;20212;-76
2021/06/07 07:28:01;;;;;;;52.67;30.97;;;19.10;97.30;;;;;;4899309;29;20528;-77
2021/06/07 07:30:27;;;;;;;52.43;28.63;;;19.10;97.30;;;;;;4910693;29;20428;-78
2021/06/07 07:32:54;;;;;;;53.47;29.13;;;19.20;97.30;;;;;;4918070;29;20503;-77
2021/06/07 07:35:20;;;;;;;49.83;30.37;;;19.30;97.30;;;;;;4934264;29;20870;-76
2021/06/07 07:37:46;;;;;;;49.43;28.00;;;19.30;97.30;;;;;;4917976;29;20452;-76
2021/06/07 07:40:15;;;;;;;42.33;27.30;;;19.40;97.30;;;;;;4908569;29;20428;-76
2021/06/07 07:42:41;;;;;;;49.43;27.50;;;19.60;97.30;;;;;;4899008;29;20431;-77
2021/06/07 07:45:09;;;;;;;45.80;28.50;;;19.70;97.30;;;;;;4898492;29;20502;-76
2021/06/07 07:47:36;;;;;;;40.50;25.97;;;19.80;97.30;;;;;;4899352;29;20416;-76
2021/06/07 07:50:05;;;;;;;42.50;24.63;;;19.80;97.30;;;;;;4917238;29;20420;-78
2021/06/07 07:52:31;;;;;;;44.20;26.03;;;19.80;97.30;;;;;;4917416;29;20431;-76
2021/06/07 07:54:57;;;;;;;45.30;28.10;;;19.90;97.30;;;;;;4916762;29;20475;-77
2021/06/07 07:57:23;;;;;;;51.90;29.60;;;20.00;97.30;;;;;;4917348;29;20707;-77
2021/06/07 07:59:49;;;;;;;48.70;29.80;;;20.10;97.30;;;;;;4924616;29;20519;-76
2021/06/07 08:02:15;;;;;;;50.80;30.40;;;20.20;97.30;;;;;;4898227;29;20454;-78
2021/06/07 08:04:41;;;;;;;45.53;27.93;;;20.20;97.30;;;;;;4910817;29;20503;-76
2021/06/07 08:07:08;;;;;;;52.90;28.70;;;20.20;97.30;;;;;;4916408;29;20188;-77
2021/06/07 08:09:34;;;;;;;50.43;30.57;;;20.10;97.30;;;;;;4917336;29;20831;-79
2021/06/07 08:12:01;;;;;;;45.93;28.37;;;20.00;97.30;;;;;;4917115;29;20432;-78
2021/06/07 08:14:27;;;;;;;41.63;26.70;;;20.00;97.30;;;;;;4898080;29;20435;-77
2021/06/07 08:16:54;;;;;;;44.20;26.33;;;20.10;97.30;;;;;;4897959;29;21019;-77
2021/06/07 08:19:20;;;;;;;41.03;26.33;;;20.10;97.30;;;;;;4914901;29;20836;-76
2021/06/07 08:21:46;;;;;;;46.27;24.83;;;20.20;97.30;;;;;;4898182;29;20443;-76
2021/06/07 08:24:13;;;;;;;43.90;25.43;;;20.30;97.30;;;;;;4914380;29;20823;-77
2021/06/07 08:26:39;;;;;;;39.83;25.03;;;20.40;97.30;;;;;;4917296;29;20211;-77
2021/06/07 08:29:07;;;;;;;43.27;28.00;;;20.40;97.30;;;;;;4916767;29;20447;-77
2021/06/07 08:31:32;;;;;;;44.40;28.37;;;20.50;97.30;;;;;;4916132;29;20235;-76
2021/06/07 08:33:58;;;;;;;43.90;26.87;;;20.70;97.30;;;;;;4919647;29;20527;-76
2021/06/07 08:36:24;;;;;;;39.87;26.97;;;20.80;97.30;;;;;;4897775;29;20196;-76
2021/06/07 08:38:49;;;;;;;40.80;25.50;;;20.90;97.30;;;;;;4897830;29;20184;-77
2021/06/07 08:41:15;;;;;;;41.13;25.70;;;20.90;97.30;;;;;;4901635;29;20208;-77
2021/06/07 08:43:40;;;;;;;39.70;23.67;;;21.00;97.30;;;;;;4916906;29;20184;-77
2021/06/07 08:46:09;;;;;;;36.27;24.53;;;21.00;97.30;;;;;;4916749;29;20215;-76
2021/06/07 08:48:35;;;;;;;36.10;23.90;;;21.00;97.30;;;;;;4933625;29;20175;-76
2021/06/07 08:51:03;;;;;;;41.77;24.13;;;21.10;97.30;;;;;;4915740;29;20977;-76
2021/06/07 08:53:28;;;;;;;45.53;25.17;;;21.20;97.30;;;;;;4897528;29;20203;-77
2021/06/07 08:55:55;;;;;;;37.20;24.40;;;21.30;97.30;;;;;;4931653;29;20435;-76
2021/06/07 08:58:21;;;;;;;40.30;24.27;;;21.40;97.30;;;;;;4933567;29;20183;-76
2021/06/07 09:00:47;;;;;;;36.90;23.17;;;21.30;97.30;;;;;;4916215;29;20447;-77
2021/06/07 09:03:16;;;;;;;36.57;24.17;;;21.30;97.30;;;;;;4916417;29;20286;-76
2021/06/07 09:05:44;;;;;;;39.47;23.20;;;21.40;97.30;;;;;;4930239;29;20218;-77
2021/06/07 09:08:12;;;;;;;43.07;27.20;;;21.50;97.30;;;;;;4915991;29;21003;-76
2021/06/07 09:10:44;;;;;;;42.53;25.60;;;21.60;97.30;;;;;;4915974;29;21015;-77
2021/06/07 09:13:11;;;;;;;33.37;22.97;;;21.50;97.30;;;;;;4916406;29;20479;-77
2021/06/07 09:15:49;;;;;;;37.73;24.00;;;21.50;97.30;;;;;;4903870;29;20468;-77
2021/06/07 09:18:26;;;;;;;39.43;23.23;;;21.40;97.30;;;;;;4897512;29;20837;-78
2021/06/07 09:20:59;;;;;;;37.53;23.33;;;21.30;97.30;;;;;;4897334;29;20448;-77
2021/06/07 09:23:44;;;;;;;32.37;21.57;;;21.30;97.30;;;;;;4916134;29;20432;-77
2021/06/07 09:26:24;;;;;;;35.97;23.03;;;21.40;97.30;;;;;;4915988;29;20475;-77
2021/06/07 09:28:50;;;;;;;30.87;21.23;;;21.60;97.30;;;;;;4915912;29;20943;-77
2021/06/07 09:31:16;;;;;;;36.20;21.57;;;21.70;97.30;;;;;;4914319;29;20448;-77
2021/06/07 09:33:47;;;;;;;33.83;20.57;;;21.80;97.30;;;;;;4900384;29;21054;-77
2021/06/07 09:36:21;;;;;;;34.90;20.97;;;21.80;96.60;;;;;;4913848;29;20424;-77
2021/06/07 09:39:09;;;;;;;32.77;21.77;;;21.70;94.90;;;;;;4915544;29;21000;-77
2021/06/07 09:42:04;;;;;;;32.73;21.60;;;21.70;95.80;;;;;;4915946;29;20450;-76
2021/06/07 09:44:44;;;;;;;35.90;22.10;;;21.70;97.30;;;;;;4912565;29;20450;-77
2021/06/07 09:47:17;;;;;;;41.83;22.47;;;21.80;96.80;;;;;;4896907;29;20881;-78
2021/06/07 09:49:51;;;;;;;30.50;20.50;;;21.90;97.30;;;;;;4897190;29;20424;-77
2021/06/07 09:52:23;;;;;;;30.40;19.73;;;21.90;97.30;;;;;;4896921;29;20963;-78
2021/06/07 09:55:03;;;;;;;30.33;20.03;;;21.90;97.30;;;;;;4897268;29;20499;-77
2021/06/07 09:57:41;;;;;;;30.13;20.27;;;22.00;97.30;;;;;;4896937;29;20503;-78
2021/06/07 10:00:08;;;;;;;29.10;20.13;;;22.00;97.30;;;;;;4909272;29;20431;-77
2021/06/07 10:02:36;;;;;;;38.53;22.60;;;22.00;96.90;;;;;;4908840;29;20472;-77
2021/06/07 10:05:02;;;;;;;33.00;21.60;;;22.10;97.30;;;;;;4910669;29;20614;-76
2021/06/07 10:07:28;;;;;;;37.20;21.83;;;22.20;97.30;;;;;;4913934;29;20455;-77
2021/06/07 10:10:11;;;;;;;33.10;21.60;;;22.20;96.70;;;;;;4912845;29;20515;-76
2021/06/07 10:12:39;;;;;;;37.47;22.73;;;22.30;96.40;;;;;;4897115;29;20197;-77
2021/06/07 10:15:06;;;;;;;31.80;19.80;;;22.40;96.90;;;;;;4914125;29;20432;-77
2021/06/07 10:17:32;;;;;;;38.27;22.03;;;22.40;96.30;;;;;;4898354;29;20619;-77
2021/06/07 10:22:32;;;;;;;25.67;17.90;;;22.50;97.30;;;;;;4936491;29;20217;-77
2021/06/07 10:24:59;;;;;;;27.67;19.53;;;22.60;97.30;;;;;;4936261;29;20455;-76
2021/06/07 10:30:00;;;;;;;31.87;21.47;;;22.60;95.30;;;;;;4195629;27;20542;-73
2021/06/07 10:32:29;;;;;;;34.30;21.60;;;22.60;95.60;;;;;;4899446;29;20453;-74
2021/06/07 10:34:57;;;;;;;31.00;21.00;;;22.70;94.80;;;;;;4897537;29;20174;-74
2021/06/07 10:37:25;;;;;;;35.47;21.37;;;22.70;94.90;;;;;;4880560;29;20424;-74
2021/06/07 10:39:51;;;;;;;27.33;18.63;;;22.80;95.30;;;;;;4881330;29;20418;-74
2021/06/07 10:42:23;;;;;;;31.40;20.27;;;22.90;95.80;;;;;;4880751;29;20485;-74
2021/06/07 10:44:55;;;;;;;28.63;18.37;;;23.00;96.70;;;;;;4881061;29;20442;-74
2021/06/07 10:47:24;;;;;;;27.97;17.70;;;23.10;95.60;;;;;;4880199;29;20810;-74
2021/06/07 10:50:07;;;;;;;24.17;17.77;;;23.20;94.50;;;;;;4880781;29;20798;-74
2021/06/07 10:52:51;;;;;;;22.90;17.03;;;23.30;93.20;;;;;;4897915;29;21109;-73
2021/06/07 10:55:24;;;;;;;28.00;17.83;;;23.40;93.60;;;;;;4880831;29;20842;-73
2021/06/07 10:57:59;;;;;;;30.40;19.93;;;23.50;92.50;;;;;;4880670;29;20445;-73
2021/06/07 11:00:35;;;;;;;26.37;19.10;;;23.50;93.50;;;;;;4880341;29;20520;-73
2021/06/07 11:03:04;;;;;;;26.30;17.03;;;23.50;92.50;;;;;;4880953;29;20417;-73
2021/06/07 11:05:32;;;;;;;23.20;15.20;;;23.60;93.90;;;;;;4897443;29;20453;-73
2021/06/07 11:08:03;;;;;;;21.53;15.60;;;23.60;94.90;;;;;;4880459;29;20437;-73
2021/06/07 11:10:31;;;;;;;22.40;16.37;;;23.60;93.70;;;;;;4880209;29;20489;-74
2021/06/07 11:13:00;;;;;;;26.50;17.10;;;23.80;93.90;;;;;;4880920;29;20497;-73
2021/06/07 11:15:57;;;;;;;24.73;17.30;;;23.80;93.30;;;;;;4881026;29;20425;-73
2021/06/07 11:18:31;;;;;;;25.00;16.77;;;23.90;93.00;;;;;;4880135;29;20437;-73
2021/06/07 11:21:05;;;;;;;24.87;14.20;;;24.10;91.30;;;;;;4880824;29;20448;-73
2021/06/07 11:23:34;;;;;;;22.77;15.40;;;24.20;90.60;;;;;;4897635;29;20894;-73
2021/06/07 11:26:00;;;;;;;23.20;17.30;;;24.20;91.10;;;;;;4880682;29;20516;-74
2021/06/07 11:28:59;;;;;;;22.40;16.17;;;24.30;93.30;;;;;;4896566;29;20548;-73
2021/06/07 11:31:24;;;;;;;22.00;14.13;;;24.30;91.60;;;;;;4896824;29;20441;-73
2021/06/07 11:34:09;;;;;;;21.77;15.47;;;24.30;92.20;;;;;;4880557;29;20416;-73
2021/06/07 11:37:03;;;;;;;24.73;16.47;;;24.30;90.90;;;;;;4879876;29;20173;-74
2021/06/07 11:39:48;;;;;;;23.80;15.97;;;24.30;90.10;;;;;;4897033;29;20394;-73
2021/06/07 11:42:22;;;;;;;24.20;15.43;;;24.30;91.60;;;;;;4896384;29;20865;-74
2021/06/07 11:44:51;;;;;;;21.20;14.53;;;24.50;91.00;;;;;;4879650;29;20433;-74
2021/06/07 11:47:21;;;;;;;19.83;14.70;;;24.60;90.10;;;;;;4896203;29;21012;-74
2021/06/07 11:49:55;;;;;;;22.40;16.10;;;24.70;90.80;;;;;;4879390;29;20413;-75
2021/06/07 11:52:56;;;;;;;23.60;16.60;;;24.70;89.30;;;;;;4879481;29;20433;-74
2021/06/07 11:55:28;;;;;;;25.30;16.97;;;24.70;91.40;;;;;;4879759;29;20952;-75
2021/06/07 11:58:05;;;;;;;25.20;17.60;;;24.80;92.10;;;;;;4880061;29;20421;-74
2021/06/07 12:00:35;;;;;;;24.03;16.83;;;24.90;91.40;;;;;;4896682;29;20826;-74
2021/06/07 12:03:06;;;;;;;22.10;16.57;;;24.90;90.10;;;;;;4879854;29;21051;-74
2021/06/07 12:05:32;;;;;;;23.30;15.13;;;24.80;89.90;;;;;;4875135;29;20452;-74
2021/06/07 12:08:04;;;;;;;22.57;14.70;;;24.60;89.40;;;;;;4896723;29;20465;-73
2021/06/07 12:10:30;;;;;;;35.17;21.43;;;24.60;90.90;;;;;;4879413;29;20165;-74
2021/06/07 12:12:56;;;;;;;32.23;19.97;;;24.70;91.00;;;;;;4896407;29;20899;-74
2021/06/07 12:15:22;;;;;;;30.53;19.70;;;24.80;92.80;;;;;;4879723;29;20433;-73
2021/06/07 12:17:50;;;;;;;31.50;21.40;;;24.90;92.70;;;;;;4879327;29;20196;-74
2021/06/07 12:20:18;;;;;;;27.80;19.27;;;24.90;91.80;;;;;;4896434;29;20173;-74
2021/06/07 12:22:46;;;;;;;27.63;20.43;;;24.80;91.20;;;;;;4896416;29;20413;-74
2021/06/07 12:25:29;;;;;;;32.37;21.67;;;24.80;91.40;;;;;;4895687;29;20460;-74
2021/06/07 12:28:22;;;;;;;29.17;20.60;;;24.70;92.40;;;;;;4879639;29;20445;-73
2021/06/07 12:30:55;;;;;;;32.07;22.13;;;24.70;92.00;;;;;;4879388;29;20449;-73
2021/06/07 12:33:41;;;;;;;29.27;19.43;;;24.80;93.10;;;;;;4890138;29;20509;-73
2021/06/07 12:36:08;;;;;;;31.23;22.43;;;24.80;93.50;;;;;;4875457;29;20835;-74
2021/06/07 12:38:41;;;;;;;31.90;21.80;;;24.80;92.80;;;;;;4879261;29;20851;-75
2021/06/07 12:41:07;;;;;;;35.53;22.23;;;24.80;93.40;;;;;;4895984;29;20445;-73
2021/06/07 12:43:41;;;;;;;26.53;20.87;;;24.80;92.10;;;;;;4879469;29;20465;-74
2021/06/07 12:46:08;;;;;;;35.53;24.40;;;24.80;92.70;;;;;;4879812;29;20920;-74
2021/06/07 12:48:40;;;;;;;33.27;22.40;;;24.80;92.90;;;;;;4879456;29;20436;-73
2021/06/07 12:51:23;;;;;;;29.60;21.10;;;24.70;94.20;;;;;;4879498;29;20448;-74
2021/06/07 12:53:56;;;;;;;30.33;21.07;;;24.80;93.30;;;;;;4896326;29;20414;-74
2021/06/07 12:56:25;;;;;;;32.10;22.30;;;24.80;93.60;;;;;;4879684;29;20418;-76
2021/06/07 12:58:58;;;;;;;34.10;21.80;;;24.80;93.70;;;;;;4879501;29;20462;-75
2021/06/07 13:01:44;;;;;;;31.67;22.67;;;24.90;93.70;;;;;;4878308;29;20464;-74
2021/06/07 13:04:09;;;;;;;33.00;22.93;;;25.00;93.30;;;;;;4877712;29;20443;-75
2021/06/07 13:06:54;;;;;;;31.13;22.33;;;25.00;93.00;;;;;;4894345;29;20492;-75
2021/06/07 13:09:46;;;;;;;31.80;22.10;;;25.10;93.40;;;;;;4879034;29;20165;-74
2021/06/07 13:12:43;;;;;;;34.60;22.17;;;25.10;92.10;;;;;;4878527;29;20445;-74
2021/06/07 13:15:10;;;;;;;31.27;22.17;;;25.20;93.20;;;;;;4878692;29;20421;-74
2021/06/07 13:17:35;;;;;;;29.47;21.97;;;25.20;93.20;;;;;;4877999;29;20413;-75
2021/06/07 13:20:15;;;;;;;33.27;22.37;;;25.20;93.20;;;;;;4878090;29;20425;-73
2021/06/07 13:22:41;;;;;;;33.67;22.77;;;25.20;92.60;;;;;;4878320;29;20177;-74
2021/06/07 13:25:15;;;;;;;35.77;24.53;;;25.20;91.60;;;;;;4878880;29;20488;-74
2021/06/07 13:27:41;;;;;;;35.43;24.47;;;25.20;92.80;;;;;;4873022;29;20442;-75
2021/06/07 13:30:09;;;;;;;31.70;21.13;;;25.10;91.90;;;;;;4894638;29;20465;-75
2021/06/07 13:32:41;;;;;;;30.37;21.67;;;25.00;93.50;;;;;;4878967;29;20429;-74
2021/06/07 13:35:17;;;;;;;29.10;21.20;;;25.10;94.30;;;;;;4878367;29;20841;-74
2021/06/07 13:37:51;;;;;;;30.93;22.70;;;25.10;94.10;;;;;;4878786;29;20425;-75
2021/06/07 13:40:34;;;;;;;36.03;22.70;;;25.20;93.40;;;;;;4878927;29;20432;-75
2021/06/07 13:43:08;;;;;;;33.67;24.13;;;25.40;93.20;;;;;;4892471;29;20424;-74
2021/06/07 13:45:37;;;;;;;28.90;21.10;;;25.40;92.20;;;;;;4895776;29;20476;-75
2021/06/07 13:48:09;;;;;;;28.83;21.93;;;25.40;93.60;;;;;;4878452;29;20441;-75
2021/06/07 13:50:43;;;;;;;33.17;21.13;;;25.60;93.70;;;;;;4878464;29;20485;-75
2021/06/07 13:53:11;;;;;;;33.17;21.27;;;25.70;93.10;;;;;;4880767;29;20452;-74
2021/06/07 13:55:46;;;;;;;27.83;20.70;;;25.70;92.70;;;;;;4880681;29;20484;-74
2021/06/07 13:58:19;;;;;;;31.77;21.20;;;25.90;91.90;;;;;;4897928;29;20417;-76
2021/06/07 14:00:53;;;;;;;26.77;20.27;;;26.00;92.30;;;;;;4881234;29;20809;-75
2021/06/07 14:03:26;;;;;;;29.93;21.97;;;26.10;92.10;;;;;;4901641;29;20436;-75
2021/06/07 14:05:55;;;;;;;29.83;21.40;;;26.10;90.80;;;;;;4879943;29;20456;-75
2021/06/07 14:08:23;;;;;;;28.73;19.70;;;26.10;91.60;;;;;;4897662;29;20410;-75
2021/06/07 14:10:50;;;;;;;37.20;20.60;;;26.10;91.00;;;;;;4881698;29;20444;-74
2021/06/07 14:13:18;;;;;;;27.37;19.07;;;26.10;90.50;;;;;;4881967;29;20417;-75
2021/06/07 14:15:43;;;;;;;31.73;21.27;;;26.10;91.60;;;;;;4881272;29;20426;-75
2021/06/07 14:18:10;;;;;;;31.10;21.87;;;26.20;90.30;;;;;;4881489;29;20440;-74
2021/06/07 14:20:36;;;;;;;29.53;20.07;;;26.20;90.40;;;;;;4898520;29;20220;-75
2021/06/07 14:25:46;;;;;;;28.37;20.47;;;26.10;90.80;;;;;;4898613;29;20281;-74
2021/06/07 14:28:13;;;;;;;28.60;20.50;;;26.20;90.70;;;;;;4881391;29;20426;-74
2021/06/07 14:30:48;;;;;;;29.10;21.07;;;26.30;90.00;;;;;;4881058;29;20445;-75
2021/06/07 14:33:13;;;;;;;34.03;22.33;;;26.30;90.40;;;;;;4897758;29;20405;-73
2021/06/07 14:35:40;;;;;;;30.80;21.10;;;26.30;89.50;;;;;;4880653;29;20429;-74
2021/06/07 14:38:08;;;;;;;29.60;20.77;;;26.30;90.10;;;;;;4881532;29;20182;-74
2021/06/07 14:40:36;;;;;;;24.20;18.77;;;26.20;89.80;;;;;;4877664;29;20430;-76
2021/06/07 14:43:04;;;;;;;28.37;21.33;;;26.30;90.70;;;;;;4862132;29;20436;-75
2021/06/07 14:45:30;;;;;;;27.87;20.80;;;26.30;89.60;;;;;;4862436;29;21002;-74
2021/06/07 14:47:55;;;;;;;26.07;18.70;;;26.40;89.30;;;;;;4878953;29;20414;-75
2021/06/07 14:50:21;;;;;;;25.53;18.13;;;26.40;90.20;;;;;;4861781;29;20229;-75
2021/06/07 14:52:47;;;;;;;23.37;18.50;;;26.50;90.60;;;;;;4878407;29;20173;-74
2021/06/07 14:55:15;;;;;;;21.93;16.80;;;26.70;89.10;;;;;;4879057;29;20426;-74
2021/06/07 14:57:42;;;;;;;25.07;18.83;;;26.80;89.60;;;;;;4879280;29;20410;-75
2021/06/07 15:00:10;;;;;;;26.80;19.80;;;26.90;89.50;;;;;;4862569;29;20435;-73
2021/06/07 15:02:37;;;;;;;28.30;18.00;;;26.90;88.30;;;;;;4878771;29;20442;-74
2021/06/07 15:05:04;;;;;;;22.10;17.77;;;27.00;88.90;;;;;;4860389;29;20450;-74
2021/06/07 15:07:31;;;;;;;24.83;16.80;;;27.00;87.60;;;;;;4861214;29;20429;-74
2021/06/07 15:09:57;;;;;;;23.17;18.33;;;27.00;90.20;;;;;;4862338;29;20418;-74
2021/06/07 15:12:24;;;;;;;24.47;18.30;;;27.00;87.50;;;;;;4862010;29;20550;-73
2021/06/07 15:14:50;;;;;;;25.17;17.67;;;27.00;88.50;;;;;;4862157;29;20243;-74
2021/06/07 15:17:18;;;;;;;27.13;17.10;;;27.10;88.50;;;;;;4862242;29;20430;-74
2021/06/07 15:19:43;;;;;;;22.67;16.10;;;27.10;87.30;;;;;;4891257;29;20910;-74
2021/06/07 15:22:09;;;;;;;25.57;18.30;;;27.10;87.50;;;;;;4880218;29;20492;-74
2021/06/07 15:24:35;;;;;;;25.77;17.03;;;27.10;86.80;;;;;;4880186;29;20185;-74
2021/06/07 15:27:00;;;;;;;23.00;16.60;;;27.20;86.90;;;;;;4897717;29;20256;-74
2021/06/07 15:29:26;;;;;;;26.83;18.17;;;27.20;87.00;;;;;;4880476;29;20288;-73
2021/06/07 15:31:52;;;;;;;20.83;16.53;;;27.20;86.70;;;;;;4880673;29;20740;-74
2021/06/07 15:34:18;;;;;;;27.07;16.57;;;27.20;86.70;;;;;;4879911;29;20186;-74
2021/06/07 15:36:45;;;;;;;25.03;17.80;;;27.20;86.40;;;;;;4880354;29;20193;-74
2021/06/07 15:39:11;;;;;;;21.43;16.77;;;27.20;86.80;;;;;;4896859;29;20971;-74
2021/06/07 15:41:36;;;;;;;23.93;18.10;;;27.20;87.50;;;;;;4896810;29;20987;-74
2021/06/07 15:44:03;;;;;;;28.80;19.20;;;27.20;87.00;;;;;;4880270;29;20181;-74
2021/06/07 15:46:29;;;;;;;25.80;19.10;;;27.10;87.50;;;;;;4880965;29;20217;-74
2021/06/07 15:48:55;;;;;;;25.07;18.73;;;27.10;87.70;;;;;;4910831;29;20424;-74
2021/06/07 15:51:23;;;;;;;21.80;17.17;;;27.10;87.70;;;;;;4879101;29;20441;-74
2021/06/07 15:53:50;;;;;;;28.97;17.40;;;27.10;88.40;;;;;;4879907;29;20233;-75
2021/06/07 15:56:19;;;;;;;24.87;16.90;;;27.20;88.00;;;;;;4896968;29;20417;-74
2021/06/07 15:58:45;;;;;;;25.00;18.80;;;27.20;88.90;;;;;;4895332;29;20458;-75
2021/06/07 16:01:12;;;;;;;23.00;17.47;;;27.30;87.70;;;;;;4896334;29;20453;-74
2021/06/07 16:03:40;;;;;;;27.20;19.63;;;27.20;88.00;;;;;;4879692;29;20425;-75
2021/06/07 16:06:06;;;;;;;27.10;20.50;;;27.10;87.40;;;;;;4896915;29;21202;-74
2021/06/07 16:08:32;;;;;;;23.10;17.73;;;27.10;87.70;;;;;;4879527;29;20422;-75
2021/06/07 16:10:59;;;;;;;27.07;19.10;;;27.00;88.30;;;;;;4879288;29;20485;-75
2021/06/07 16:13:24;;;;;;;26.80;19.57;;;26.90;88.00;;;;;;4879238;29;20422;-75
2021/06/07 16:15:56;;;;;;;25.27;18.83;;;26.80;88.10;;;;;;4896283;29;20432;-74
2021/06/07 16:23:20;;;;;;;31.17;18.53;;;26.90;89.30;;;;;;4896319;29;20276;-74
2021/06/07 16:25:50;;;;;;;25.97;19.53;;;26.80;89.10;;;;;;4896229;29;20222;-74
2021/06/07 16:28:16;;;;;;;30.67;18.90;;;26.80;89.00;;;;;;4896091;29;20460;-74
2021/06/07 16:30:43;;;;;;;27.30;19.80;;;26.70;89.20;;;;;;4915195;23;20534;-77
2021/06/07 16:33:11;;;;;;;28.90;19.90;;;26.60;89.40;;;;;;4916405;29;20651;-77
2021/06/07 16:35:37;;;;;;;29.53;19.80;;;26.50;89.70;;;;;;4917195;29;20507;-78
2021/06/07 16:38:03;;;;;;;28.77;20.30;;;26.50;89.70;;;;;;4916736;29;21027;-78
2021/06/07 16:40:29;;;;;;;28.50;19.47;;;26.40;90.10;;;;;;4908350;29;20524;-78
2021/06/07 16:42:54;;;;;;;27.57;20.07;;;26.30;90.30;;;;;;4911711;29;20718;-78
2021/06/07 16:45:21;;;;;;;29.87;19.43;;;26.20;91.00;;;;;;4905937;29;20706;-78
2021/06/07 16:47:46;;;;;;;24.87;19.73;;;26.10;91.10;;;;;;4915389;29;20180;-77
2021/06/07 16:50:17;;;;;;;28.77;21.60;;;26.00;91.00;;;;;;4934025;29;20412;-77
2021/06/07 16:52:52;;;;;;;27.33;18.67;;;25.70;91.60;;;;;;4917327;29;20706;-77
2021/06/07 16:55:19;;;;;;;29.83;21.57;;;25.50;92.50;;;;;;4917458;29;20775;-77
2021/06/07 16:57:45;;;;;;;37.50;21.70;;;25.30;92.90;;;;;;4917193;29;20919;-75
2021/06/07 17:00:12;;;;;;;28.20;19.23;;;25.10;93.30;;;;;;4917113;29;20423;-76
2021/06/07 17:02:38;;;;;;;31.67;20.20;;;24.90;94.00;;;;;;4900919;29;20211;-76
2021/06/07 17:05:04;;;;;;;29.93;20.77;;;24.70;94.20;;;;;;4898516;29;20436;-77
2021/06/07 17:07:30;;;;;;;32.13;21.63;;;24.60;95.30;;;;;;4897844;29;20272;-76
2021/06/07 17:09:55;;;;;;;33.00;22.10;;;24.50;95.80;;;;;;4897251;29;20504;-76
2021/06/07 17:12:21;;;;;;;30.93;21.00;;;24.30;94.70;;;;;;4899316;29;20873;-75
2021/06/07 17:14:48;;;;;;;33.47;21.87;;;24.20;95.60;;;;;;4908261;29;20633;-75
2021/06/07 17:17:15;;;;;;;32.60;20.90;;;24.10;95.80;;;;;;4917313;29;20184;-76
2021/06/07 17:19:41;;;;;;;36.40;22.93;;;23.90;96.10;;;;;;4916859;29;20502;-75
2021/06/07 17:22:08;;;;;;;36.63;23.33;;;23.80;96.30;;;;;;4916788;29;20450;-75
2021/06/07 17:24:34;;;;;;;33.00;21.43;;;23.70;96.40;;;;;;4934302;29;20426;-76
2021/06/07 17:27:00;;;;;;;30.40;21.70;;;23.60;96.20;;;;;;4918199;29;20466;-76
2021/06/07 17:29:26;;;;;;;30.53;20.30;;;23.50;96.80;;;;;;4907285;29;20451;-76
2021/06/07 17:31:52;;;;;;;30.27;21.67;;;23.40;97.10;;;;;;4913431;29;20507;-74
2021/06/07 17:34:18;;;;;;;29.40;20.30;;;23.40;97.00;;;;;;4934323;29;20422;-76
2021/06/07 17:36:44;;;;;;;33.17;21.10;;;23.40;97.30;;;;;;4924680;29;20188;-75
2021/06/07 17:39:10;;;;;;;28.67;20.43;;;23.30;97.30;;;;;;4908301;29;20431;-75
2021/06/07 17:41:36;;;;;;;31.10;21.80;;;23.30;97.30;;;;;;4920596;29;20439;-76
2021/06/07 17:44:01;;;;;;;32.63;20.87;;;23.30;97.30;;;;;;4920943;29;20346;-75
2021/06/07 17:46:27;;;;;;;28.87;20.20;;;23.20;97.30;;;;;;4920167;29;20571;-75
2021/06/07 17:48:53;;;;;;;31.47;20.63;;;23.20;97.30;;;;;;4920278;29;20686;-75